createdAt,value
2017-10-13T00:01:51.545Z,3.13
2017-10-13T00:04:18.938Z,3.97
2017-10-13T00:06:46.327Z,3.83
2017-10-13T00:09:13.715Z,3.63
2017-10-13T00:11:41.106Z,3.03
2017-10-13T00:14:08.509Z,4.50
2017-10-13T00:16:35.911Z,4.27
2017-10-13T00:19:03.295Z,3.60
2017-10-13T00:21:30.687Z,4.10
2017-10-13T00:23:58.070Z,4.50
2017-10-13T00:26:25.471Z,4.90
2017-10-13T00:28:52.859Z,3.30
2017-10-13T00:31:20.259Z,4.53
2017-10-13T00:33:47.645Z,3.97
2017-10-13T00:36:15.035Z,3.70
2017-10-13T00:38:42.425Z,4.23
2017-10-13T00:41:09.814Z,4.20
2017-10-13T00:43:37.199Z,3.27
2017-10-13T00:46:04.607Z,4.43
2017-10-13T00:48:32.003Z,3.47
2017-10-13T00:50:59.402Z,4.00
2017-10-13T00:53:26.782Z,4.80
2017-10-13T00:55:54.187Z,4.23
2017-10-13T00:58:21.580Z,4.03
2017-10-13T01:00:48.974Z,3.80
2017-10-13T01:03:16.358Z,4.03
2017-10-13T01:05:43.866Z,3.53
2017-10-13T01:08:11.258Z,3.60
2017-10-13T01:10:38.646Z,4.07
2017-10-13T01:13:06.035Z,3.77
2017-10-13T01:15:33.418Z,4.57
2017-10-13T01:18:00.812Z,3.20
2017-10-13T01:20:28.202Z,3.83
2017-10-13T01:22:55.595Z,3.43
2017-10-13T01:25:22.998Z,4.03
2017-10-13T01:27:50.394Z,4.37
2017-10-13T01:30:17.787Z,3.90
2017-10-13T01:32:45.182Z,4.30
2017-10-13T01:35:12.574Z,3.10
2017-10-13T01:37:39.966Z,3.80
2017-10-13T01:40:07.366Z,3.37
2017-10-13T01:42:34.787Z,3.97
2017-10-13T01:45:02.251Z,3.70
2017-10-13T01:47:29.707Z,3.80
2017-10-13T01:49:57.110Z,3.47
2017-10-13T01:52:24.498Z,3.43
2017-10-13T01:54:51.979Z,3.80
2017-10-13T01:57:19.365Z,3.80
2017-10-13T01:59:46.762Z,4.10
2017-10-13T02:02:14.153Z,3.30
2017-10-13T02:04:41.551Z,3.90
2017-10-13T02:07:08.941Z,4.80
2017-10-13T02:09:36.339Z,3.07
2017-10-13T02:12:03.731Z,3.47
2017-10-13T02:14:31.218Z,3.63
2017-10-13T02:16:58.610Z,3.60
2017-10-13T02:19:26.005Z,3.57
2017-10-13T02:21:53.393Z,3.27
2017-10-13T02:24:20.790Z,4.03
2017-10-13T02:26:48.182Z,3.10
2017-10-13T02:29:15.612Z,3.60
2017-10-13T02:31:43.002Z,3.23
2017-10-13T02:34:10.398Z,3.87
2017-10-13T02:36:37.786Z,3.70
2017-10-13T02:39:05.183Z,2.90
2017-10-13T02:41:32.575Z,3.40
2017-10-13T02:43:59.966Z,4.27
2017-10-13T02:46:27.364Z,4.03
2017-10-13T02:48:54.770Z,4.03
2017-10-13T02:51:22.162Z,4.00
2017-10-13T02:53:49.602Z,4.47
2017-10-13T02:56:16.986Z,4.40
2017-10-13T02:58:44.387Z,4.07
2017-10-13T03:01:11.782Z,3.17
2017-10-13T03:03:39.181Z,3.97
2017-10-13T03:06:06.567Z,3.60
2017-10-13T03:08:33.957Z,4.03
2017-10-13T03:11:01.402Z,4.23
2017-10-13T03:13:28.795Z,3.90
2017-10-13T03:15:56.190Z,3.57
2017-10-13T03:18:23.582Z,3.20
2017-10-13T03:20:50.975Z,4.23
2017-10-13T03:23:18.371Z,4.53
2017-10-13T03:25:45.763Z,3.93
2017-10-13T03:28:13.146Z,3.90
2017-10-13T03:30:40.543Z,4.10
2017-10-13T03:33:07.931Z,3.50
2017-10-13T03:35:35.334Z,4.43
2017-10-13T03:38:02.771Z,3.33
2017-10-13T03:40:30.168Z,3.60
2017-10-13T03:42:57.554Z,3.03
2017-10-13T03:45:24.953Z,3.73
2017-10-13T03:47:52.333Z,4.20
2017-10-13T03:50:19.729Z,4.20
2017-10-13T03:52:47.118Z,5.43
2017-10-13T03:55:14.514Z,3.90
2017-10-13T03:57:41.911Z,4.40
2017-10-13T04:00:09.323Z,4.53
2017-10-13T04:02:36.710Z,3.77
2017-10-13T04:05:04.103Z,4.40
2017-10-13T04:07:31.503Z,4.27
2017-10-13T04:09:58.895Z,4.27
2017-10-13T04:12:26.287Z,3.57
2017-10-13T04:14:53.689Z,4.73
2017-10-13T04:17:21.174Z,3.37
2017-10-13T04:19:48.566Z,3.53
2017-10-13T04:22:15.981Z,4.10
2017-10-13T04:24:43.371Z,3.63
2017-10-13T04:27:10.771Z,3.90
2017-10-13T04:29:38.158Z,3.93
2017-10-13T04:32:05.556Z,3.60
2017-10-13T04:34:32.946Z,3.10
2017-10-13T04:37:00.341Z,4.13
2017-10-13T04:39:27.734Z,4.47
2017-10-13T04:41:55.135Z,3.63
2017-10-13T04:44:22.511Z,3.80
2017-10-13T04:46:49.911Z,5.37
2017-10-13T04:49:17.298Z,4.07
2017-10-13T04:51:44.695Z,3.90
2017-10-13T04:54:12.087Z,4.00
2017-10-13T04:56:39.487Z,4.17
2017-10-13T04:59:06.881Z,4.70
2017-10-13T05:01:34.278Z,5.07
2017-10-13T05:04:01.662Z,5.20
2017-10-13T05:06:29.062Z,4.00
2017-10-13T05:08:56.454Z,5.50
2017-10-13T05:11:23.859Z,4.70
2017-10-13T05:13:51.250Z,5.53
2017-10-13T05:16:18.707Z,4.97
2017-10-13T05:18:46.091Z,5.47
2017-10-13T05:21:13.483Z,6.40
2017-10-13T05:23:40.874Z,5.80
2017-10-13T05:26:08.288Z,6.23
2017-10-13T05:28:35.681Z,5.77
2017-10-13T05:31:03.135Z,7.43
2017-10-13T05:33:30.536Z,7.00
2017-10-13T05:35:57.938Z,6.20
2017-10-13T05:38:25.343Z,8.20
2017-10-13T05:40:52.726Z,8.40
2017-10-13T05:43:20.140Z,8.20
2017-10-13T05:45:47.535Z,8.97
2017-10-13T05:48:14.926Z,8.63
2017-10-13T05:50:42.314Z,8.80
2017-10-13T05:53:09.706Z,9.07
2017-10-13T05:55:37.102Z,10.00
2017-10-13T05:58:04.509Z,8.37
2017-10-13T06:00:31.898Z,6.80
2017-10-13T06:02:59.298Z,7.80
2017-10-13T06:05:26.690Z,6.67
2017-10-13T06:07:54.179Z,8.23
2017-10-13T06:10:21.576Z,5.43
2017-10-13T06:12:48.975Z,5.57
2017-10-13T06:15:16.378Z,5.47
2017-10-13T06:17:43.770Z,6.63
2017-10-13T06:20:11.169Z,5.93
2017-10-13T06:22:38.581Z,6.70
2017-10-13T06:25:05.971Z,6.13
2017-10-13T06:27:33.361Z,7.27
2017-10-13T06:30:00.755Z,5.80
2017-10-13T06:32:28.146Z,7.37
2017-10-13T06:34:55.546Z,7.90
2017-10-13T06:37:23.022Z,8.30
2017-10-13T06:39:50.482Z,8.53
2017-10-13T06:42:17.883Z,7.63
2017-10-13T06:44:45.279Z,8.27
2017-10-13T06:47:12.676Z,8.10
2017-10-13T06:49:40.074Z,8.80
2017-10-13T06:52:07.464Z,9.47
2017-10-13T06:54:34.863Z,8.70
2017-10-13T06:57:02.267Z,8.07
2017-10-13T06:59:29.646Z,7.57
2017-10-13T07:01:57.042Z,6.70
2017-10-13T07:04:24.439Z,7.83
2017-10-13T07:06:51.830Z,8.77
2017-10-13T07:09:19.235Z,8.87
2017-10-13T07:11:46.627Z,7.93
2017-10-13T07:14:14.031Z,6.90
2017-10-13T07:16:41.429Z,7.93
2017-10-13T07:19:08.822Z,7.90
2017-10-13T07:21:36.323Z,6.80
2017-10-13T07:24:06.619Z,7.73
2017-10-13T07:26:34.026Z,7.10
2017-10-13T07:29:01.428Z,7.40
2017-10-13T07:31:28.818Z,6.83
2017-10-13T07:33:56.214Z,7.67
2017-10-13T07:36:23.626Z,7.03
2017-10-13T07:38:51.031Z,9.60
2017-10-13T07:41:18.418Z,8.53
2017-10-13T07:43:45.900Z,8.07
2017-10-13T07:46:13.284Z,8.07
2017-10-13T07:48:40.678Z,7.90
2017-10-13T07:51:08.098Z,7.30
2017-10-13T07:53:35.508Z,7.63
2017-10-13T07:56:02.890Z,8.10
2017-10-13T07:58:30.367Z,9.00
2017-10-13T08:00:57.758Z,8.57
2017-10-13T08:03:25.143Z,7.53
2017-10-13T08:05:52.603Z,8.07
2017-10-13T08:08:19.994Z,8.40
2017-10-13T08:10:47.446Z,8.10
2017-10-13T08:13:14.838Z,7.20
2017-10-13T08:15:42.234Z,7.20
2017-10-13T08:18:09.720Z,8.07
2017-10-13T08:20:37.114Z,6.83
2017-10-13T08:23:04.510Z,7.37
2017-10-13T08:25:31.920Z,6.63
2017-10-13T08:27:59.312Z,7.90
2017-10-13T08:30:26.705Z,7.50
2017-10-13T08:32:54.160Z,9.87
2017-10-13T08:35:21.546Z,8.77
2017-10-13T08:37:48.950Z,8.50
2017-10-13T08:40:16.340Z,8.13
2017-10-13T11:44:46.531Z,4.47
2017-10-13T11:47:14.019Z,5.00
2017-10-13T11:49:41.435Z,4.50
2017-10-13T11:52:08.821Z,4.70
2017-10-13T11:54:36.215Z,6.03
2017-10-13T11:57:03.612Z,3.47
2017-10-13T11:59:31.000Z,4.27
2017-10-13T12:01:58.471Z,5.03
2017-10-13T12:04:25.846Z,4.30
2017-10-13T12:06:53.243Z,4.00
2017-10-13T12:09:20.642Z,5.13
2017-10-13T12:11:48.031Z,5.67
2017-10-13T12:14:15.423Z,5.00
2017-10-13T12:16:42.818Z,5.63
2017-10-13T12:19:10.251Z,4.30
2017-10-13T12:21:37.650Z,3.83
2017-10-13T12:24:05.067Z,5.13
2017-10-13T12:26:32.458Z,5.30
2017-10-13T12:28:59.847Z,5.03
2017-10-13T12:31:27.243Z,5.53
2017-10-13T12:33:54.635Z,5.47
2017-10-13T12:36:22.915Z,5.73
2017-10-13T12:38:50.318Z,6.20
2017-10-13T12:41:17.716Z,4.37
2017-10-13T12:43:45.133Z,4.87
2017-10-13T12:46:12.520Z,6.00
2017-10-13T12:48:39.942Z,4.27
2017-10-13T12:51:07.326Z,4.30
2017-10-13T12:53:34.751Z,4.83
2017-10-13T12:56:02.160Z,5.07
2017-10-13T12:58:29.534Z,4.77
2017-10-13T13:00:56.934Z,5.78
2017-10-13T13:03:24.327Z,4.50
2017-10-13T13:05:51.723Z,5.10
2017-10-13T13:08:19.114Z,5.17
2017-10-13T13:10:46.514Z,4.57
2017-10-13T13:13:13.915Z,4.57
2017-10-13T13:15:41.302Z,3.97
2017-10-13T13:18:08.699Z,4.90
2017-10-13T13:20:36.094Z,5.60
2017-10-13T13:23:03.501Z,4.90
2017-10-13T13:25:30.891Z,5.03
2017-10-13T13:27:58.284Z,5.70
2017-10-13T13:30:25.674Z,5.47
2017-10-13T13:32:53.070Z,5.43
2017-10-13T13:35:20.574Z,5.47
2017-10-13T13:37:47.979Z,5.70
2017-10-13T13:40:15.367Z,4.53
2017-10-13T13:42:42.759Z,5.43
2017-10-13T13:45:10.154Z,5.20
2017-10-13T13:47:37.546Z,6.30
2017-10-13T13:50:04.939Z,5.77
2017-10-13T13:52:32.327Z,5.83
2017-10-13T13:54:59.739Z,5.93
2017-10-13T13:57:27.127Z,4.70
2017-10-13T13:59:54.527Z,5.70
2017-10-13T14:02:21.916Z,7.17
2017-10-13T14:04:49.318Z,5.90
2017-10-13T14:07:16.744Z,5.43
2017-10-13T14:09:44.134Z,4.70
2017-10-13T14:12:11.526Z,5.30
2017-10-13T14:14:38.930Z,5.90
2017-10-13T14:17:06.465Z,5.07
2017-10-13T14:19:33.875Z,7.00
2017-10-13T14:22:01.262Z,4.60
2017-10-13T14:24:28.655Z,6.10
2017-10-13T14:26:56.051Z,5.60
2017-10-13T14:29:23.444Z,5.60
2017-10-13T14:31:50.904Z,5.60
2017-10-13T14:34:18.279Z,4.90
2017-10-13T14:36:45.671Z,4.93
2017-10-13T14:39:13.081Z,4.97
2017-10-13T14:41:40.470Z,5.43
2017-10-13T14:44:07.871Z,5.50
2017-10-13T14:46:35.262Z,4.07
2017-10-13T14:49:02.667Z,4.97
2017-10-13T14:51:30.063Z,6.20
2017-10-13T14:53:57.462Z,6.67
2017-10-13T14:56:25.015Z,4.60
2017-10-13T14:58:52.435Z,5.37
2017-10-13T15:01:19.830Z,4.90
2017-10-13T15:03:47.232Z,4.80
2017-10-13T15:06:14.622Z,4.80
2017-10-13T15:08:42.031Z,4.93
2017-10-13T15:11:09.441Z,5.20
2017-10-13T15:13:36.835Z,5.77
2017-10-13T15:16:04.227Z,4.93
2017-10-13T15:18:31.624Z,5.20
2017-10-13T15:20:59.010Z,4.87
2017-10-13T15:23:26.398Z,5.67
2017-10-13T15:25:54.709Z,5.03
2017-10-13T15:28:27.597Z,5.67
2017-10-13T15:31:00.595Z,6.43
2017-10-13T15:33:33.450Z,5.07
2017-10-13T15:36:06.328Z,5.37
2017-10-13T15:38:39.187Z,4.50
2017-10-13T15:44:15.134Z,5.10
2017-10-13T15:46:48.042Z,6.17
2017-10-13T15:49:31.130Z,5.37
2017-10-13T15:52:04.046Z,5.63
2017-10-13T15:54:31.435Z,5.30
2017-10-13T15:56:58.843Z,6.13
2017-10-13T15:59:26.235Z,6.17
2017-10-13T16:01:53.658Z,6.40
2017-10-13T16:04:21.052Z,6.07
2017-10-13T16:34:50.122Z,8.13
2017-10-13T16:37:17.511Z,6.60
2017-10-13T16:39:44.903Z,6.87
2017-10-13T16:42:12.291Z,7.80
2017-10-13T16:44:39.691Z,7.40
2017-10-13T16:47:07.078Z,9.07
2017-10-13T16:49:34.483Z,10.10
2017-10-13T16:52:01.871Z,9.77
2017-10-13T16:54:29.281Z,8.47
2017-10-13T16:56:56.741Z,8.33
2017-10-13T16:59:24.122Z,9.20
2017-10-13T17:01:51.536Z,8.73
2017-10-13T17:04:18.995Z,10.70
2017-10-13T17:06:46.386Z,8.33
2017-10-13T17:09:13.770Z,8.30
2017-10-13T17:11:41.159Z,9.07
2017-10-13T17:14:08.555Z,9.70
2017-10-13T17:16:35.949Z,10.30
2017-10-13T17:19:03.354Z,9.77
2017-10-13T17:21:30.746Z,10.57
2017-10-13T17:23:58.134Z,9.33
2017-10-13T17:26:25.534Z,10.77
2017-10-13T17:28:52.946Z,9.67
2017-10-13T17:31:20.350Z,10.10
2017-10-13T17:33:47.738Z,10.10
2017-10-13T17:36:15.134Z,9.13
2017-10-13T17:38:42.537Z,11.40
2017-10-13T17:41:09.927Z,9.77
2017-10-13T17:43:37.319Z,12.10
2017-10-13T17:46:04.719Z,11.30
2017-10-13T17:48:32.106Z,10.50
2017-10-13T17:50:59.530Z,11.37
2017-10-13T17:53:26.927Z,11.90
2017-10-13T17:55:54.318Z,12.60
2017-10-13T17:58:21.714Z,11.90
2017-10-13T18:00:49.119Z,11.53
2017-10-13T18:03:16.506Z,12.40
2017-10-13T18:05:43.915Z,11.33
2017-10-13T18:08:11.303Z,12.80
2017-10-13T18:10:38.791Z,12.20
2017-10-13T18:13:06.182Z,11.20
2017-10-13T18:15:33.574Z,11.20
2017-10-13T18:18:00.983Z,12.13
2017-10-13T18:20:28.380Z,12.20
2017-10-13T18:22:55.781Z,11.57
2017-10-13T18:25:23.176Z,11.67
2017-10-13T18:27:50.574Z,11.10
2017-10-13T18:30:18.055Z,12.13
2017-10-13T18:32:45.450Z,11.97
2017-10-13T18:35:12.947Z,12.67
2017-10-13T18:37:40.350Z,13.40
2017-10-13T18:40:07.766Z,12.70
2017-10-13T18:42:35.175Z,12.90
2017-10-13T18:45:02.559Z,12.47
2017-10-13T18:47:29.955Z,13.13
2017-10-13T18:49:57.355Z,13.00
2017-10-13T18:52:24.760Z,14.00
2017-10-13T18:54:52.146Z,13.93
2017-10-13T18:57:19.550Z,13.40
2017-10-13T18:59:46.942Z,15.03
2017-10-13T19:02:14.342Z,13.53
2017-10-13T19:04:41.742Z,14.50
2017-10-13T19:07:09.138Z,14.37
2017-10-13T19:09:36.531Z,12.97
2017-10-13T19:12:03.938Z,13.67
2017-10-13T19:14:31.580Z,13.83
2017-10-13T19:16:58.976Z,13.73
2017-10-13T19:19:26.372Z,13.50
2017-10-13T19:21:53.777Z,13.23
2017-10-13T19:24:21.250Z,14.30
2017-10-13T19:26:48.650Z,13.93
2017-10-13T19:29:16.046Z,13.57
2017-10-13T19:31:43.539Z,14.50
2017-10-13T19:34:10.939Z,13.83
2017-10-13T19:36:38.338Z,12.40
2017-10-13T19:39:05.738Z,14.03
2017-10-13T19:41:33.139Z,12.47
2017-10-13T19:44:00.531Z,12.70
2017-10-13T19:46:27.937Z,14.10
2017-10-13T19:48:55.329Z,13.03
2017-10-13T19:51:22.731Z,13.10
2017-10-13T19:53:50.127Z,13.37
2017-10-13T19:56:17.532Z,14.37
2017-10-13T19:58:44.922Z,13.10
2017-10-13T20:01:12.329Z,14.00
2017-10-13T20:03:39.740Z,14.07
2017-10-13T20:06:07.136Z,12.60
2017-10-13T20:08:34.527Z,14.07
2017-10-13T20:11:01.927Z,13.97
2017-10-13T20:13:29.319Z,14.50
2017-10-13T20:15:56.707Z,13.67
2017-10-13T20:18:24.117Z,14.30
2017-10-13T20:20:51.507Z,14.17
2017-10-13T20:23:18.910Z,15.33
2017-10-13T20:25:46.327Z,14.87
2017-10-13T20:28:13.733Z,14.70
2017-10-13T20:30:41.126Z,14.93
2017-10-13T20:33:08.526Z,16.17
2017-10-13T20:35:35.985Z,15.33
2017-10-13T20:38:03.375Z,16.17
2017-10-13T20:40:30.776Z,15.90
2017-10-13T20:42:58.182Z,16.10
2017-10-13T20:45:25.573Z,15.20
2017-10-13T20:47:52.974Z,14.50
2017-10-13T20:50:20.375Z,16.83
2017-10-13T20:52:47.875Z,15.67
2017-10-13T20:55:15.267Z,15.70
2017-10-13T20:57:42.662Z,15.80
2017-10-13T21:00:10.158Z,15.70
2017-10-13T21:02:37.552Z,15.43
2017-10-13T21:05:04.954Z,15.33
2017-10-13T21:07:32.346Z,16.53
2017-10-13T21:09:59.747Z,16.80
2017-10-13T21:12:27.143Z,17.33
2017-10-13T21:14:54.542Z,18.50
2017-10-13T21:17:21.935Z,16.20
2017-10-13T21:19:49.339Z,15.67
2017-10-13T21:22:16.739Z,15.87
2017-10-13T21:24:44.138Z,15.53
2017-10-13T21:27:11.531Z,18.27
2017-10-13T21:29:38.928Z,15.83
2017-10-13T21:32:06.322Z,15.60
2017-10-13T21:34:33.828Z,17.00
2017-10-13T21:37:01.225Z,16.10
2017-10-13T21:39:28.641Z,15.93
2017-10-13T21:41:56.035Z,17.30
2017-10-13T21:44:23.431Z,16.70
2017-10-13T21:46:50.835Z,16.10
2017-10-13T21:49:18.259Z,18.47
2017-10-13T21:51:45.658Z,17.57
2017-10-13T21:54:13.056Z,18.20
2017-10-13T21:56:40.458Z,16.20
2017-10-13T21:59:07.850Z,17.30
2017-10-13T22:01:35.258Z,16.00
2017-10-13T22:04:02.657Z,17.23
2017-10-13T22:06:30.063Z,17.37
2017-10-13T22:08:57.455Z,16.60
2017-10-13T22:11:24.858Z,17.37
2017-10-13T22:13:52.590Z,19.13
2017-10-13T22:16:20.434Z,17.80
2017-10-13T22:18:48.271Z,16.27
2017-10-13T22:21:16.035Z,17.03
2017-10-13T22:23:43.903Z,17.40
2017-10-13T22:26:11.791Z,17.40
2017-10-13T22:28:39.459Z,19.30
2017-10-13T22:31:07.155Z,17.90
2017-10-13T22:33:34.574Z,19.50
2017-10-13T22:36:01.977Z,17.77
2017-10-13T22:38:29.367Z,18.97
2017-10-13T22:40:56.785Z,18.97
2017-10-13T22:43:24.170Z,19.60
2017-10-13T22:45:51.562Z,18.50
2017-10-13T22:48:18.963Z,18.53
2017-10-13T22:50:46.359Z,20.07
2017-10-13T22:53:13.763Z,20.77
2017-10-13T22:55:41.154Z,20.10
2017-10-13T22:58:08.554Z,18.40
2017-10-13T23:00:35.957Z,18.10
2017-10-13T23:03:03.351Z,17.57
2017-10-13T23:05:30.743Z,18.83
2017-10-13T23:07:58.144Z,18.83
2017-10-13T23:10:25.534Z,16.80
2017-10-13T23:12:53.026Z,17.40
2017-10-13T23:15:20.422Z,16.87
2017-10-13T23:17:47.829Z,17.70
2017-10-13T23:20:15.223Z,17.17
2017-10-13T23:22:42.623Z,17.90
2017-10-13T23:25:10.014Z,18.07
2017-10-13T23:27:37.442Z,17.40
2017-10-13T23:30:04.834Z,18.20
2017-10-13T23:32:32.248Z,17.80
2017-10-13T23:34:59.643Z,17.00
2017-10-13T23:37:27.044Z,16.80
2017-10-13T23:39:54.434Z,17.00
2017-10-13T23:42:21.834Z,17.70
2017-10-13T23:44:49.242Z,17.83
2017-10-13T23:47:16.650Z,19.10
2017-10-13T23:49:44.043Z,19.50
2017-10-13T23:52:11.431Z,17.73
2017-10-13T23:54:38.822Z,19.67
2017-10-13T23:57:06.227Z,18.30
2017-10-13T23:59:33.632Z,19.03
